createdAt,value
2023-04-20T00:03:46.662Z,12.52
2023-04-20T00:08:48.382Z,11.80
2023-04-20T00:13:50.051Z,10.55
2023-04-20T00:18:52.252Z,11.32
2023-04-20T00:23:53.896Z,11.55
2023-04-20T00:28:55.539Z,11.23
2023-04-20T00:33:57.237Z,11.35
2023-04-20T00:38:59.363Z,11.23
2023-04-20T00:44:03.802Z,9.82
2023-04-20T00:49:06.708Z,11.02
2023-04-20T00:54:08.460Z,10.13
2023-04-20T00:59:10.368Z,11.05
2023-04-20T01:04:12.223Z,11.07
2023-04-20T01:09:13.915Z,12.25
2023-04-20T01:14:15.543Z,11.43
2023-04-20T01:19:17.379Z,12.55
2023-04-20T01:24:19.203Z,13.57
2023-04-20T01:29:21.004Z,13.90
2023-04-20T01:34:22.647Z,13.13
2023-04-20T01:39:24.563Z,12.43
2023-04-20T01:44:26.221Z,13.25
2023-04-20T01:49:28.592Z,14.00
2023-04-20T01:54:30.236Z,13.32
2023-04-20T01:59:31.916Z,12.45
2023-04-20T02:04:36.739Z,13.73
2023-04-20T02:09:38.358Z,13.43
2023-04-20T02:14:40.024Z,13.05
2023-04-20T02:19:44.427Z,14.13
2023-04-20T02:24:46.096Z,15.48
2023-04-20T02:29:49.428Z,14.35
2023-04-20T02:34:51.186Z,13.25
2023-04-20T02:39:52.816Z,12.77
2023-04-20T02:44:54.429Z,11.45
2023-04-20T02:49:56.163Z,12.20
2023-04-20T02:54:58.157Z,11.25
2023-04-20T03:00:00.169Z,11.65
2023-04-20T03:05:14.030Z,10.73
2023-04-20T03:10:18.792Z,11.80
2023-04-20T03:15:41.014Z,10.75
2023-04-20T03:21:02.957Z,12.40
2023-04-20T03:26:06.389Z,12.07
2023-04-20T03:31:15.949Z,12.73
2023-04-20T03:36:18.581Z,12.05
2023-04-20T03:41:20.454Z,11.07
2023-04-20T03:46:23.333Z,10.68
2023-04-20T03:51:25.309Z,10.88
2023-04-20T03:56:27.339Z,11.05
2023-04-20T04:01:30.068Z,11.25
2023-04-20T04:06:32.634Z,10.38
2023-04-20T04:11:34.446Z,10.88
2023-04-20T04:16:36.246Z,12.32
2023-04-20T04:21:38.052Z,11.07
2023-04-20T04:26:40.399Z,11.85
2023-04-20T04:31:42.336Z,12.10
2023-04-20T04:36:50.345Z,12.38
2023-04-20T04:41:57.834Z,13.30
2023-04-20T04:47:09.567Z,13.55
2023-04-20T04:52:11.300Z,13.00
2023-04-20T04:57:13.122Z,13.80
2023-04-20T05:02:14.847Z,12.68
2023-04-20T05:07:17.439Z,14.85
2023-04-20T05:12:19.599Z,14.20
2023-04-20T05:17:21.521Z,16.27
2023-04-20T05:22:23.343Z,16.38
2023-04-20T05:27:25.198Z,18.30
2023-04-20T05:32:27.117Z,18.65
2023-04-20T05:37:28.946Z,18.00
2023-04-20T05:42:30.815Z,17.85
2023-04-20T05:47:32.725Z,17.67
2023-04-20T05:52:34.754Z,15.77
2023-04-20T05:57:42.741Z,16.67
2023-04-20T06:02:44.827Z,16.45
2023-04-20T06:07:47.174Z,17.83
2023-04-20T06:12:49.118Z,17.85
2023-04-20T06:17:50.937Z,16.38
2023-04-20T06:22:52.820Z,16.33
2023-04-20T06:27:54.606Z,15.88
2023-04-20T06:32:57.037Z,16.85
2023-04-20T06:37:59.627Z,16.33
2023-04-20T06:43:01.484Z,13.82
2023-04-20T06:48:03.773Z,13.25
2023-04-20T06:53:05.813Z,12.77
2023-04-20T06:58:07.657Z,13.13
2023-04-20T07:03:09.728Z,11.65
2023-04-20T07:08:11.712Z,11.02
2023-04-20T07:13:13.489Z,11.55
2023-04-20T07:18:15.341Z,10.95
2023-04-20T07:23:17.156Z,10.70
2023-04-20T07:28:18.955Z,10.70
2023-04-20T07:33:21.221Z,10.82
2023-04-20T07:38:23.066Z,10.32
2023-04-20T07:43:24.896Z,9.57
2023-04-20T07:48:26.723Z,12.20
2023-04-20T07:53:31.706Z,12.07
2023-04-20T07:58:33.534Z,12.52
2023-04-20T08:03:36.402Z,13.25
2023-04-20T08:08:38.316Z,13.23
2023-04-20T08:13:41.426Z,13.25
2023-04-20T08:18:43.218Z,13.00
2023-04-20T08:23:45.049Z,14.02
2023-04-20T08:28:46.915Z,14.30
2023-04-20T08:33:48.886Z,14.93
2023-04-20T08:39:08.117Z,14.68
2023-04-20T08:44:10.079Z,15.02
2023-04-20T08:49:14.680Z,14.95
2023-04-20T08:54:17.022Z,15.73
2023-04-20T08:59:19.218Z,15.93
2023-04-20T09:04:27.148Z,17.25
2023-04-20T09:09:29.410Z,16.70
2023-04-20T09:14:41.974Z,18.38
2023-04-20T09:19:45.195Z,16.67
2023-04-20T09:24:47.099Z,17.63
2023-04-20T09:30:04.054Z,16.80
2023-04-20T09:35:07.704Z,17.92
2023-04-20T09:40:10.346Z,17.90
2023-04-20T09:45:14.789Z,16.95
2023-04-20T09:50:26.897Z,18.52
2023-04-20T09:55:34.248Z,18.17
2023-04-20T10:00:36.117Z,18.20
2023-04-20T10:05:39.747Z,18.20
2023-04-20T10:10:49.958Z,19.80
2023-04-20T10:15:51.888Z,19.63
2023-04-20T10:21:07.049Z,18.50
2023-04-20T10:26:08.900Z,17.85
2023-04-20T10:31:17.043Z,17.83
2023-04-20T10:36:27.614Z,17.25
2023-04-20T10:41:29.438Z,16.65
2023-04-20T10:46:31.694Z,16.27
2023-04-20T10:51:33.484Z,16.80
2023-04-20T10:56:46.319Z,16.90
2023-04-20T11:01:48.952Z,16.42
2023-04-20T11:06:50.888Z,15.80
2023-04-20T11:12:00.439Z,16.98
2023-04-20T11:17:02.610Z,17.65
2023-04-20T11:22:06.470Z,18.35
2023-04-20T11:27:08.486Z,18.35
2023-04-20T11:32:11.395Z,17.25
2023-04-20T11:37:13.903Z,19.33
2023-04-20T11:42:15.723Z,18.65
2023-04-20T11:47:17.548Z,17.65
2023-04-20T11:52:19.345Z,17.50
2023-04-20T11:57:23.938Z,16.73
2023-04-20T12:02:26.035Z,17.13
2023-04-20T12:07:28.363Z,16.98
2023-04-20T12:12:30.195Z,17.40
2023-04-20T12:17:32.054Z,18.52
2023-04-20T12:22:33.890Z,18.00
2023-04-20T12:27:35.813Z,17.73
2023-04-20T12:32:37.798Z,20.67
2023-04-20T12:37:39.634Z,19.33
2023-04-20T12:42:41.509Z,21.52
2023-04-20T12:47:43.342Z,20.83
2023-04-20T12:52:45.410Z,20.17
2023-04-20T12:57:47.233Z,19.85
2023-04-20T13:02:50.108Z,18.58
2023-04-20T13:07:52.146Z,19.83
2023-04-20T13:12:53.994Z,19.73
2023-04-20T13:17:55.947Z,20.00
2023-04-20T13:23:01.206Z,19.55
2023-04-20T13:28:03.809Z,23.17
2023-04-20T13:33:06.719Z,23.95
2023-04-20T13:38:08.655Z,23.75
2023-04-20T13:43:10.596Z,23.30
2023-04-20T13:48:12.533Z,23.15
2023-04-20T13:53:14.404Z,22.08
2023-04-20T13:58:16.286Z,22.83
2023-04-20T14:03:20.312Z,22.08
2023-04-20T14:08:23.417Z,22.65
2023-04-20T14:13:25.834Z,22.05
2023-04-20T14:18:27.734Z,20.88
2023-04-20T14:23:29.531Z,22.35
2023-04-20T14:28:33.184Z,21.40
2023-04-20T14:33:35.348Z,21.70
2023-04-20T14:38:37.416Z,21.52
2023-04-20T14:43:39.249Z,23.15
2023-04-20T14:48:41.306Z,23.02
2023-04-20T14:53:43.317Z,21.95
2023-04-20T14:58:45.240Z,23.88
2023-04-20T15:03:47.318Z,23.17
2023-04-20T15:08:49.378Z,24.77
2023-04-20T15:13:52.190Z,25.17
2023-04-20T15:18:54.769Z,25.33
2023-04-20T15:23:56.598Z,26.05
2023-04-20T15:28:58.437Z,24.67
2023-04-20T15:34:00.827Z,24.50
2023-04-20T15:39:02.682Z,25.55
2023-04-20T15:44:04.588Z,25.75
2023-04-20T15:49:06.425Z,27.15
2023-04-20T15:54:08.217Z,26.58
2023-04-20T15:59:10.138Z,25.27
2023-04-20T16:04:12.249Z,27.25
2023-04-20T16:09:14.248Z,26.42
2023-04-20T16:14:16.261Z,28.63
2023-04-20T16:19:18.278Z,26.30
2023-04-20T16:24:20.257Z,26.48
2023-04-20T16:29:22.345Z,28.75
2023-04-20T16:34:24.553Z,25.60
2023-04-20T16:39:26.371Z,25.85
2023-04-20T16:44:28.196Z,24.98
2023-04-20T16:49:30.567Z,27.52
2023-04-20T16:54:32.409Z,26.38
2023-04-20T16:59:34.312Z,26.35
2023-04-20T17:04:36.128Z,25.17
2023-04-20T17:09:37.993Z,27.05
2023-04-20T17:14:39.869Z,26.95
2023-04-20T17:19:41.727Z,25.15
2023-04-20T17:24:43.542Z,25.58
2023-04-20T17:29:45.438Z,25.17
2023-04-20T17:34:48.786Z,26.02
2023-04-20T17:39:50.738Z,25.02
2023-04-20T17:44:52.528Z,26.98
2023-04-20T17:49:55.129Z,25.88
2023-04-20T17:54:57.763Z,26.25
2023-04-20T17:59:59.593Z,26.90
2023-04-20T18:05:01.510Z,28.33
2023-04-20T18:10:04.311Z,26.30
2023-04-20T18:15:08.324Z,30.15
2023-04-20T18:20:10.982Z,30.85
2023-04-20T18:25:12.797Z,27.83
2023-04-20T18:30:15.031Z,28.48
2023-04-20T18:35:16.926Z,29.08
2023-04-20T18:40:18.838Z,29.05
2023-04-20T18:45:21.819Z,28.17
2023-04-20T18:50:24.267Z,28.67
2023-04-20T18:55:26.194Z,28.58
2023-04-20T19:00:28.072Z,25.70
2023-04-20T19:05:30.879Z,28.58
2023-04-20T19:10:32.666Z,30.52
2023-04-20T19:15:34.820Z,29.17
2023-04-20T19:20:36.683Z,30.35
2023-04-20T19:25:38.495Z,29.60
2023-04-20T19:30:40.771Z,28.08
2023-04-20T19:35:43.568Z,30.23
2023-04-20T19:40:46.069Z,31.55
2023-04-20T19:45:47.974Z,31.08
2023-04-20T19:50:51.329Z,32.78
2023-04-20T19:55:53.156Z,31.02
2023-04-20T20:00:54.978Z,32.97
2023-04-20T20:05:56.957Z,33.05
2023-04-20T20:10:58.748Z,34.60
2023-04-20T20:16:00.724Z,31.65
2023-04-20T20:21:02.569Z,30.55
2023-04-20T20:26:04.418Z,28.83
2023-04-20T20:31:06.250Z,29.98
2023-04-20T20:36:09.080Z,27.42
2023-04-20T20:41:13.596Z,26.33
2023-04-20T20:46:15.929Z,27.15
2023-04-20T20:51:17.748Z,27.55
2023-04-20T20:56:19.560Z,26.08
2023-04-20T21:01:21.708Z,26.23
2023-04-20T21:06:23.561Z,24.45
2023-04-20T21:11:25.513Z,23.52
2023-04-20T21:16:27.577Z,23.08
2023-04-20T21:21:29.402Z,21.25
2023-04-20T21:26:35.792Z,22.55
2023-04-20T21:31:37.722Z,21.23
2023-04-20T21:36:39.581Z,21.05
2023-04-20T21:41:41.396Z,20.05
2023-04-20T21:46:43.377Z,21.33
2023-04-20T21:51:45.739Z,20.95
2023-04-20T21:56:47.638Z,21.63
2023-04-20T22:01:49.457Z,23.90
2023-04-20T22:06:53.456Z,20.58
2023-04-20T22:11:55.887Z,22.48
2023-04-20T22:16:57.726Z,21.80
2023-04-20T22:21:59.557Z,20.92
2023-04-20T22:27:02.319Z,22.05
2023-04-20T22:32:04.290Z,24.05
2023-04-20T22:37:06.460Z,20.73
2023-04-20T22:42:09.513Z,20.45
2023-04-20T22:47:11.503Z,18.27
2023-04-20T22:52:13.679Z,17.77
2023-04-20T22:57:16.086Z,17.33
2023-04-20T23:02:17.960Z,18.35
2023-04-20T23:07:21.262Z,16.75
2023-04-20T23:12:23.391Z,17.55
2023-04-20T23:17:25.429Z,17.58
2023-04-20T23:22:27.236Z,17.17
2023-04-20T23:27:29.056Z,16.80
2023-04-20T23:32:31.452Z,16.20
2023-04-20T23:37:33.329Z,16.50
2023-04-20T23:42:38.387Z,15.10
2023-04-20T23:47:40.337Z,16.35
2023-04-20T23:52:42.249Z,17.02
2023-04-20T23:57:44.194Z,16.98
